Station info - map view · info · telemetry · weather · raw · status · beacons · messages · bulletins · browse · moving · my account
Callsign, ship name or locator: Clear       
It is possible to search using wildcards (*?) after a prefix. Example: OH*
APRS station IZ3SQY-9 - show graphs
Map loading...
Mic-E message: En route
Location: 46°01.07' N 11°54.09' E - locator JN56WA84EG - show map - static map
1.7 miles Southeast bearing 149° from Pedavena, Provincia di Belluno, Veneto, Italy [?]
6.3 miles Southwest bearing 220° from Cesiomaggiore, Provincia di Belluno, Veneto, Italy
44.9 miles Northwest bearing 333° from Venice, Provincia di Venezia, Veneto, Italy
59.3 miles Northeast bearing 47° from Verona, Provincia di Verona, Veneto, Italy
Last position: 2017-12-15 11:23:42 EST (2d 8h57m ago)
2017-12-15 17:23:42 CET local time at Pedavena, Italy [?]
Altitude: 1001 ft
Course: 40°
Device: Yaesu: FTM-400DR (rig)
Last path: IZ3SQY-9>TV0Q07 via qAR,IR3EH
Positions stored: 9426
Packet rate: 83 seconds between packets on average during 415 seconds.
Other SSIDs: IZ3SQY
Stations near current position of IZ3SQY-9 - show more
callsign distance last heard - EST      callsign distance last heard - EST
EW72442.3 miles 317°2017-12-17 20:20:48 L22203255.9 miles 5°2017-12-01 20:27:47
IR3UCR8.0 miles 137°2017-12-17 20:18:39 IR3UFH8.1 miles 131°2017-12-14 02:00:05
IR3UDD8.7 miles 138°2017-12-14 02:00:03 IR3UDD-R08.7 miles 138°2017-12-17 19:59:59
EW91389.4 miles 233°2017-12-17 20:17:48 IZ3ALW-109.5 miles 167°2017-12-10 09:44:00
IW3IAA-310.4 miles 58°2017-12-02 10:51:49 IU3EES-910.7 miles 207°2017-12-17 10:32:21
DW915111.0 miles 205°2017-12-17 20:21:08 IU3CLX-511.2 miles 182°2017-12-05 06:10:06
IN3XZY-911.7 miles 344°2017-12-10 11:45:04 IQ3VN-R113.3 miles 297°2017-12-17 20:00:47
IR3UEJ13.3 miles 297°2017-12-17 20:04:47 IR3UDH13.3 miles 297°2017-12-17 20:20:14
IZ3WUV-314.1 miles 18°2017-12-17 19:00:34 IR3UGQ-RP14.2 miles 218°2017-12-17 20:12:11
IZ3NWN-1014.9 miles 46°2017-12-17 19:55:41 DW944215.2 miles 60°2017-12-17 20:19:01
Stations which heard IZ3SQY-9 directly on radio –
callsign pkts first heard - EST last heard longest (tx => rx) longest at - EST
IR3BT 27 2017-12-01 10:33:35 2017-12-04 04:43:12 JN55GK > JN56MD 53.7 miles 27° 2017-12-01 10:33:35
IR2AO 12 2017-12-01 07:39:51 2017-12-01 09:44:41 JN45RO > JN45PM 8.5 miles 239° 2017-12-01 09:44:41
IR2UBX-11 6 2017-12-01 07:39:52 2017-12-01 08:59:18 JN45OM > JN45MQ 13.9 miles 322° 2017-12-01 08:59:18
IR4AN 1 2017-12-01 10:27:02 2017-12-01 10:27:02 JN55EL > JN54FK 71.6 miles 176° 2017-12-01 10:27:02
IQ3QR-11 6 2017-12-02 03:31:17 2017-12-11 07:06:44 JN56WA > JN65AS 19.2 miles 159° 2017-12-03 03:19:08
IK2CHZ-11 1 2017-12-01 09:57:48 2017-12-01 09:57:48 JN45UP > JN45UI 20.4 miles 188° 2017-12-01 09:57:48
IR3DP 11 2017-12-01 11:54:13 2017-12-01 12:18:49 JN55TP > JN55US 9.1 miles 17° 2017-12-01 12:13:33
IQ3VQ 10 2017-12-01 10:50:55 2017-12-01 11:01:03 JN55LJ > JN55MK 6.9 miles 64° 2017-12-01 10:50:55
IZ3LBC 1 2017-12-01 10:42:14 2017-12-01 10:42:14 JN55IK > JN55KL 7.4 miles 61° 2017-12-01 10:42:14
IR2BQ 1 2017-12-01 10:25:13 2017-12-01 10:25:13 JN55EL > JN55CN 6.9 miles 310° 2017-12-01 10:25:13
IR2BZ 38 2017-12-01 09:47:36 2017-12-01 10:39:06 JN55IK > JN45XO 36.5 miles 288° 2017-12-01 10:39:06
IR2BT 1 2017-12-01 10:26:24 2017-12-01 10:26:24 JN55EL > JN55FO 11.1 miles 23° 2017-12-01 10:26:24
IZ3LSV-1 47 2017-12-01 11:50:33 2017-12-14 02:50:27 JN55TP > JN65HP 48.1 miles 92° 2017-12-01 11:50:33
IR2Y 9 2017-12-01 10:20:29 2017-12-01 10:35:24 JN55GK > JN55EK 9.8 miles 262° 2017-12-01 10:35:24
IK3PQG-11 10 2017-12-01 11:10:43 2017-12-01 12:05:52 JN55TR > JN55PM 22.2 miles 228° 2017-12-01 12:05:52
IQ2ER 8 2017-12-01 09:36:19 2017-12-01 09:44:06 JN45RO > JN45OT 18.3 miles 324° 2017-12-01 09:44:06
IK3ITI 23 2017-12-01 12:15:28 2017-12-14 09:13:18 JN55UU > JN65KS 58.1 miles 95° 2017-12-01 12:27:32
IR3EG-11 26 2017-12-01 11:13:07 2017-12-01 11:57:45 JN55RL > JN55RR 19.5 miles 11° 2017-12-01 11:13:07
IR2S 23 2017-12-01 09:04:18 2017-12-01 10:39:41 JN45OM > JN55DQ 51.3 miles 79° 2017-12-01 09:04:18
IR2BW 6 2017-12-01 10:13:18 2017-12-01 10:37:13 JN55HK > JN55DN 19.5 miles 300° 2017-12-01 10:37:13
IR2DD 2 2017-12-01 10:38:29 2017-12-01 10:44:38 JN55JK > JN55GL 13.1 miles 286° 2017-12-01 10:44:38
IR2DF 3 2017-12-01 10:09:12 2017-12-01 10:11:32 JN55AN > JN55AS 12.9 miles 356° 2017-12-01 10:11:32
IQ2LB-7 1 2017-12-01 07:42:50 2017-12-01 07:42:50 JN45OM > JN45NO 6.0 miles 305° 2017-12-01 07:42:50
IK2ILW 1 2017-12-01 09:42:56 2017-12-01 09:42:56 JN45RO > JN45VV 27.2 miles 38° 2017-12-01 09:42:56
IW5CBL-15 5 2017-12-01 10:47:02 2017-12-01 10:57:14 JN55NJ > JN54BH 89.2 miles 213° 2017-12-01 10:57:14
IZ3VIV-15 16 2017-12-01 10:57:15 2017-12-03 03:46:54 JN56WA > JN55PJ 51.2 miles 213° 2017-12-03 03:46:54
IW3FVZ-11 15 2017-12-02 03:22:23 2017-12-11 09:21:15 JN56XB > JN55WH 52.4 miles 184° 2017-12-04 05:01:23
IR2UGL-11 3 2017-12-01 09:44:41 2017-12-01 09:46:22 JN45SO > JN46OA 32.0 miles 336° 2017-12-01 09:46:22
IQ3ME-11 12 2017-12-01 12:00:48 2017-12-04 04:53:13 JN56WA > JN65CL 40.0 miles 158° 2017-12-02 03:21:09
IQ4SC 8 2017-12-01 10:43:27 2017-12-01 12:22:52 JN55UT > JN54IO 97.2 miles 211° 2017-12-01 12:22:52
LOVERE 1 2017-12-01 10:10:58 2017-12-01 10:10:58 JN55AN > JN55AT 17.2 miles 9° 2017-12-01 10:10:58
IR2UCL 30 2017-12-01 09:38:47 2017-12-01 10:32:21 JN55GK > JN45UP 42.0 miles 289° 2017-12-01 10:32:21
IV3GCH 4 2017-12-01 12:10:44 2017-12-04 03:46:06 JN55UR > JN65KX 57.9 miles 74° 2017-12-01 12:10:44
IR4UCI-11 1 2017-12-03 03:40:51 2017-12-03 03:40:51 JN56WA > JN54MM 111.2 miles 202° 2017-12-03 03:40:51
IU2GOH 1 2017-12-01 10:16:56 2017-12-01 10:16:56 JN55BM > JN55BL 4.1 miles 199° 2017-12-01 10:16:56
IK3YBX-10 8 2017-12-01 12:33:18 2017-12-11 09:24:10 JN56WB > JN65DM 40.8 miles 154° 2017-12-11 09:24:10
IR6UDA-11 4 2017-12-01 12:06:58 2017-12-02 11:36:46 JN56WA > JN63EU 152.5 miles 172° 2017-12-02 11:36:46
IR2UGD 3 2017-12-01 07:39:50 2017-12-01 09:01:18 JN45OM > JN45PJ 10.3 miles 162° 2017-12-01 07:40:50
IU2ITE 1 2017-12-01 09:09:18 2017-12-01 09:09:18 JN45OM > JN45MK 10.6 miles 226° 2017-12-01 09:09:18
IQ3PN 1 2017-12-01 12:16:03 2017-12-01 12:16:03 JN55VR > JN65HX 45.0 miles 70° 2017-12-01 12:16:03
IR3EH 278 2017-12-01 11:56:31 2017-12-15 11:23:42 JN55TQ > JN66DB 43.0 miles 48° 2017-12-01 11:56:31
IR3EP-11 20 2017-12-01 10:48:19 2017-12-01 12:20:32 JN55KJ > JN55SK 31.3 miles 87° 2017-12-01 10:48:19
IK3OCD-10 8 2017-12-01 11:53:01 2017-12-14 02:41:21 JN56WB > JN65AL 40.4 miles 168° 2017-12-11 09:24:45

Only position packets which were originated by the station are shown here. The range statistics show some extra long hops, because some digipeaters do not correctly add themselves to the digipeater path. Please check the raw packets.
About this site
This page shows real-time information collected from the Automatic Position Reporting System Internet network (APRS-IS). APRS is used by amateur (ham) radio operators to transmit real-time position information, weather data, telemetry and messages over the radio. A vehicle equipped with a GPS receiver, a VHF transmitter or HF transceiver and a small computer device called a tracker transmits it's location, speed and course in a small data packet, which is then received by a nearby iGate receiving site which forwards the packet on the Internet. Systems connected to the Internet can send information on the APRS-IS without a radio transmitter, or collect and display information transmitted anywhere in the world.
FAQ · Blog · Discussion group · Linking to aprs.fi · AIS sites · Service status · Database statistics · Advertising on aprs.fi · Technical details · API · Change log · Planned changes · Credits and thanks · Terms Of Service · iPhone/iPad APRS